createdAt,value
2023-02-02T00:01:37.162Z,16.70
2023-02-02T00:04:05.465Z,14.03
2023-02-02T00:06:33.857Z,19.23
2023-02-02T00:09:03.149Z,23.30
2023-02-02T00:11:32.439Z,19.33
2023-02-02T00:14:01.104Z,16.50
2023-02-02T00:16:43.693Z,15.53
2023-02-02T00:19:13.583Z,12.30
2023-02-02T00:21:41.927Z,13.73
2023-02-02T00:24:11.471Z,17.83
2023-02-02T00:26:42.750Z,11.03
2023-02-02T00:29:16.375Z,12.77
2023-02-02T00:31:44.284Z,15.07
2023-02-02T00:34:13.097Z,15.47
2023-02-02T00:36:41.064Z,15.93
2023-02-02T00:39:10.461Z,12.40
2023-02-02T00:41:39.715Z,13.60
2023-02-02T00:44:27.282Z,17.23
2023-02-02T00:46:55.208Z,14.13
2023-02-02T00:49:24.272Z,11.57
2023-02-02T00:51:52.290Z,19.10
2023-02-02T00:54:20.269Z,12.20
2023-02-02T00:56:49.581Z,11.60
2023-02-02T00:59:17.542Z,14.20
2023-02-02T01:01:46.769Z,16.53
2023-02-02T01:04:14.822Z,11.73
2023-02-02T01:06:43.109Z,11.43
2023-02-02T01:09:11.111Z,13.80
2023-02-02T01:11:39.080Z,14.93
2023-02-02T01:14:08.350Z,15.60
2023-02-02T01:16:36.267Z,16.93
2023-02-02T01:19:04.532Z,15.03
2023-02-02T01:21:32.640Z,14.47
2023-02-02T01:24:00.541Z,18.20
2023-02-02T01:26:28.573Z,16.10
2023-02-02T01:28:56.636Z,17.63
2023-02-02T01:31:26.196Z,18.23
2023-02-02T01:33:54.279Z,17.90
2023-02-02T01:36:23.707Z,14.50
2023-02-02T01:38:52.421Z,13.27
2023-02-02T01:41:22.156Z,13.60
2023-02-02T01:43:56.279Z,14.47
2023-02-02T01:46:27.590Z,16.93
2023-02-02T01:49:03.652Z,13.80
2023-02-02T01:51:37.247Z,17.47
2023-02-02T01:54:09.410Z,15.73
2023-02-02T01:56:42.315Z,18.07
2023-02-02T01:59:13.007Z,17.47
2023-02-02T02:01:43.675Z,17.13
2023-02-02T02:04:11.898Z,16.33
2023-02-02T02:06:40.091Z,14.07
2023-02-02T02:09:08.878Z,16.47
2023-02-02T02:11:37.557Z,15.30
2023-02-02T02:14:27.648Z,13.33
2023-02-02T02:17:22.223Z,20.10
2023-02-02T02:20:43.158Z,12.47
2023-02-02T02:23:59.723Z,13.33
2023-02-02T02:26:47.691Z,13.77
2023-02-02T02:29:37.324Z,14.33
2023-02-02T02:32:28.205Z,16.07
2023-02-02T02:35:06.174Z,17.30
2023-02-02T02:37:41.491Z,11.43
2023-02-02T02:40:18.679Z,11.80
2023-02-02T02:42:50.851Z,19.07
2023-02-02T02:45:20.526Z,16.73
2023-02-02T02:47:51.231Z,15.17
2023-02-02T02:50:20.068Z,18.77
2023-02-02T02:52:50.671Z,17.50
2023-02-02T02:55:18.924Z,18.47
2023-02-02T02:58:03.800Z,14.83
2023-02-02T03:00:51.667Z,14.77
2023-02-02T03:03:35.666Z,18.30
2023-02-02T03:06:09.214Z,15.77
2023-02-02T03:08:40.980Z,12.03
2023-02-02T03:11:11.186Z,16.67
2023-02-02T03:13:40.688Z,13.40
2023-02-02T03:16:09.897Z,12.97
2023-02-02T03:18:39.945Z,16.50
2023-02-02T03:21:07.923Z,12.57
2023-02-02T03:23:36.079Z,13.37
2023-02-02T03:26:04.494Z,15.47
2023-02-02T03:28:33.434Z,17.60
2023-02-02T03:31:02.912Z,15.20
2023-02-02T03:33:32.893Z,14.43
2023-02-02T03:36:02.168Z,16.40
2023-02-02T03:38:30.057Z,13.70
2023-02-02T03:40:58.303Z,15.77
2023-02-02T03:43:26.660Z,11.87
2023-02-02T03:45:58.357Z,13.20
2023-02-02T03:48:26.822Z,15.70
2023-02-02T03:50:54.753Z,15.27
2023-02-02T03:53:24.161Z,12.50
2023-02-02T03:55:52.045Z,11.87
2023-02-02T03:58:22.144Z,13.93
2023-02-02T04:00:50.673Z,18.30
2023-02-02T04:03:18.679Z,9.20
2023-02-02T04:05:50.565Z,13.80
2023-02-02T04:08:18.448Z,16.50
2023-02-02T04:10:47.716Z,16.60
2023-02-02T04:13:15.700Z,15.93
2023-02-02T04:15:43.800Z,15.10
2023-02-02T04:18:11.766Z,12.23
2023-02-02T04:20:39.847Z,17.37
2023-02-02T04:23:07.788Z,16.07
2023-02-02T04:25:35.760Z,11.57
2023-02-02T04:28:05.539Z,14.77
2023-02-02T04:30:33.530Z,11.33
2023-02-02T04:33:01.420Z,14.97
2023-02-02T04:35:29.334Z,14.40
2023-02-02T04:37:57.467Z,13.00
2023-02-02T04:40:25.688Z,13.00
2023-02-02T04:42:53.720Z,18.93
2023-02-02T04:45:23.223Z,11.67
2023-02-02T04:47:51.973Z,16.23
2023-02-02T04:50:19.969Z,15.10
2023-02-02T04:52:47.843Z,13.97
2023-02-02T04:55:15.832Z,13.47
2023-02-02T04:57:43.982Z,15.27
2023-02-02T05:00:13.291Z,12.43
2023-02-02T05:02:43.527Z,18.13
2023-02-02T05:05:14.392Z,14.43
2023-02-02T05:07:42.300Z,15.63
2023-02-02T05:10:11.675Z,18.67
2023-02-02T05:12:39.593Z,15.53
2023-02-02T05:15:08.451Z,16.57
2023-02-02T05:17:36.389Z,17.13
2023-02-02T05:20:06.139Z,15.60
2023-02-02T05:22:35.180Z,15.70
2023-02-02T05:25:03.330Z,16.10
2023-02-02T05:27:31.209Z,12.13
2023-02-02T05:29:59.197Z,16.10
2023-02-02T05:32:28.005Z,14.43
2023-02-02T05:34:55.990Z,12.20
2023-02-02T05:37:25.245Z,12.67
2023-02-02T05:39:53.725Z,13.10
2023-02-02T05:42:21.747Z,20.40
2023-02-02T05:44:49.645Z,14.90
2023-02-02T05:47:17.697Z,12.43
2023-02-02T05:49:45.575Z,12.60
2023-02-02T05:52:17.658Z,14.00
2023-02-02T05:54:47.180Z,15.37
2023-02-02T05:57:15.126Z,14.53
2023-02-02T05:59:43.095Z,11.10
2023-02-02T06:02:11.019Z,18.73
2023-02-02T06:04:39.043Z,12.93
2023-02-02T06:07:06.975Z,12.83
2023-02-02T06:09:34.903Z,19.10
2023-02-02T06:12:04.611Z,11.83
2023-02-02T06:14:32.902Z,11.80
2023-02-02T06:17:00.826Z,12.90
2023-02-02T06:19:28.836Z,9.50
2023-02-02T06:21:56.755Z,15.50
2023-02-02T06:24:25.147Z,12.17
2023-02-02T06:26:53.065Z,15.30
2023-02-02T06:29:22.619Z,16.90
2023-02-02T06:31:50.572Z,13.23
2023-02-02T06:34:18.852Z,17.57
2023-02-02T06:36:46.707Z,12.13
2023-02-02T06:39:14.649Z,14.83
2023-02-02T06:41:44.736Z,15.43
2023-02-02T06:44:12.630Z,9.37
2023-02-02T06:46:42.193Z,12.47
2023-02-02T06:49:10.159Z,16.67
2023-02-02T06:51:38.041Z,11.60
2023-02-02T06:54:05.995Z,16.03
2023-02-02T06:56:33.974Z,12.40
2023-02-02T06:59:01.890Z,15.70
2023-02-02T07:01:30.012Z,12.67
2023-02-02T07:03:59.409Z,13.33
2023-02-02T07:06:28.669Z,11.93
2023-02-02T07:09:02.746Z,12.43
2023-02-02T07:11:32.996Z,12.77
2023-02-02T07:14:02.815Z,10.60
2023-02-02T07:16:31.067Z,11.40
2023-02-02T07:19:00.404Z,18.23
2023-02-02T07:21:30.076Z,11.73
2023-02-02T07:23:59.037Z,12.97
2023-02-02T07:26:27.704Z,11.10
2023-02-02T07:28:55.638Z,10.13
2023-02-02T07:31:25.770Z,10.80
2023-02-02T07:33:54.587Z,11.87
2023-02-02T07:36:25.427Z,10.83
2023-02-02T07:38:55.135Z,8.27
2023-02-02T07:41:23.120Z,13.60
2023-02-02T07:43:52.025Z,15.37
2023-02-02T07:46:20.859Z,13.87
2023-02-02T07:48:48.835Z,12.53
2023-02-02T07:51:18.534Z,11.70
2023-02-02T07:53:49.613Z,13.77
2023-02-02T07:56:18.908Z,12.80
2023-02-02T07:58:47.184Z,14.13
2023-02-02T08:01:17.396Z,11.10
2023-02-02T08:03:45.760Z,11.03
2023-02-02T08:06:16.801Z,12.77
2023-02-02T08:08:44.993Z,13.07
2023-02-02T08:11:16.187Z,15.27
2023-02-02T08:13:45.048Z,12.37
2023-02-02T08:16:13.582Z,12.27
2023-02-02T08:18:42.290Z,11.03
2023-02-02T08:21:10.948Z,11.43
2023-02-02T08:23:40.407Z,12.07
2023-02-02T08:26:10.901Z,11.73
2023-02-02T08:28:41.403Z,12.13
2023-02-02T08:31:11.591Z,11.30
2023-02-02T08:33:40.132Z,11.43
2023-02-02T08:36:13.371Z,10.93
2023-02-02T08:38:41.810Z,12.13
2023-02-02T08:41:12.299Z,10.97
2023-02-02T08:43:42.346Z,9.17
2023-02-02T08:46:11.722Z,10.53
2023-02-02T08:48:40.322Z,9.77
2023-02-02T08:51:09.678Z,12.07
2023-02-02T08:53:39.094Z,12.60
2023-02-02T08:56:10.318Z,12.47
2023-02-02T08:58:38.299Z,13.67
2023-02-02T09:01:09.576Z,14.33
2023-02-02T09:03:40.051Z,12.73
2023-02-02T09:06:09.701Z,13.00
2023-02-02T09:08:38.291Z,12.27
2023-02-02T09:11:08.091Z,11.47
2023-02-02T09:13:36.239Z,10.23
2023-02-02T09:16:06.766Z,11.17
2023-02-02T09:18:36.112Z,10.43
2023-02-02T09:21:06.447Z,11.23
2023-02-02T09:23:35.748Z,11.53
2023-02-02T09:26:11.284Z,9.90
2023-02-02T09:28:39.611Z,10.10
2023-02-02T09:31:08.483Z,8.57
2023-02-02T09:33:38.372Z,6.57
2023-02-02T09:36:08.706Z,11.97
2023-02-02T09:38:36.997Z,12.97
2023-02-02T09:41:29.157Z,11.43
2023-02-02T09:44:07.003Z,9.40
2023-02-02T09:46:48.903Z,9.03
2023-02-02T09:49:23.560Z,8.67
2023-02-02T09:51:58.168Z,11.20
2023-02-02T09:54:32.296Z,12.07
2023-02-02T09:57:03.167Z,11.30
2023-02-02T09:59:36.053Z,16.90
2023-02-02T10:02:10.991Z,13.13
2023-02-02T10:04:42.805Z,11.33
2023-02-02T10:07:17.853Z,10.77
2023-02-02T10:09:50.364Z,10.17
2023-02-02T10:12:30.984Z,11.20
2023-02-02T10:15:06.282Z,10.60
2023-02-02T10:17:41.350Z,9.40
2023-02-02T10:20:30.351Z,9.93
2023-02-02T10:23:04.857Z,10.83
2023-02-02T10:25:36.290Z,10.50
2023-02-02T10:28:12.572Z,11.60
2023-02-02T10:30:47.116Z,8.97
2023-02-02T10:33:25.039Z,9.67
2023-02-02T10:36:00.952Z,14.10
2023-02-02T10:38:39.626Z,11.33
2023-02-02T10:41:15.486Z,12.10
2023-02-02T10:44:04.927Z,12.30
2023-02-02T10:46:37.720Z,10.83
2023-02-02T10:49:17.940Z,9.67
2023-02-02T10:51:52.969Z,11.33
2023-02-02T10:54:54.958Z,10.10
2023-02-02T10:57:35.329Z,9.10
2023-02-02T11:00:10.143Z,10.50
2023-02-02T11:02:38.118Z,9.60
2023-02-02T11:05:24.404Z,8.03
2023-02-02T11:07:55.390Z,8.23
2023-02-02T11:10:23.673Z,8.53
2023-02-02T11:12:53.595Z,11.17
2023-02-02T11:15:27.497Z,10.40
2023-02-02T11:17:55.525Z,10.87
2023-02-02T11:20:31.803Z,12.33
2023-02-02T11:23:07.401Z,9.43
2023-02-02T11:25:37.705Z,8.10
2023-02-02T11:28:13.662Z,9.47
2023-02-02T11:30:42.144Z,8.60
2023-02-02T11:33:28.994Z,6.23
2023-02-02T11:35:58.634Z,11.80
2023-02-02T11:38:28.556Z,9.90
2023-02-02T11:41:03.619Z,10.30
2023-02-02T11:43:34.178Z,8.00
2023-02-02T11:46:04.536Z,15.00
2023-02-02T11:48:36.419Z,11.57
2023-02-02T11:51:05.480Z,10.90
2023-02-02T11:53:37.730Z,10.97
2023-02-02T11:56:09.673Z,11.73
2023-02-02T11:58:56.488Z,12.00
2023-02-02T12:01:28.898Z,8.90
2023-02-02T12:03:58.719Z,12.67
2023-02-02T12:06:28.506Z,8.90
2023-02-02T12:09:01.229Z,11.97
2023-02-02T12:11:49.495Z,7.80
2023-02-02T12:14:31.490Z,9.57
2023-02-02T12:17:12.071Z,12.27
2023-02-02T12:20:11.323Z,8.37
2023-02-02T12:23:05.359Z,8.67
2023-02-02T12:25:54.254Z,12.80
2023-02-02T12:28:35.857Z,10.03
2023-02-02T12:31:11.168Z,9.90
2023-02-02T12:33:47.114Z,7.67
2023-02-02T12:36:28.954Z,9.90
2023-02-02T12:39:21.127Z,11.17
2023-02-02T12:42:16.494Z,8.60
2023-02-02T12:44:53.944Z,9.60
2023-02-02T12:47:26.878Z,10.97
2023-02-02T12:50:06.135Z,11.40
2023-02-02T12:52:48.045Z,10.30
2023-02-02T12:55:23.396Z,9.93
2023-02-02T12:58:06.336Z,9.73
2023-02-02T13:01:03.371Z,6.97
2023-02-02T13:03:44.365Z,10.47
2023-02-02T13:06:44.757Z,7.67
2023-02-02T13:09:38.482Z,12.63
2023-02-02T13:12:09.305Z,8.93
2023-02-02T13:14:41.903Z,6.90
2023-02-02T13:17:16.143Z,9.53
2023-02-02T13:19:47.972Z,7.63
2023-02-02T13:22:20.975Z,9.70
2023-02-02T13:24:54.962Z,6.60
2023-02-02T13:27:24.427Z,9.73
2023-02-02T13:29:56.681Z,7.43
2023-02-02T13:32:29.835Z,7.13
2023-02-02T13:35:02.779Z,9.93
2023-02-02T13:37:37.711Z,7.43
2023-02-02T13:40:19.546Z,7.83
2023-02-02T13:42:53.640Z,9.70
2023-02-02T13:45:36.671Z,8.40
2023-02-02T13:48:15.605Z,11.13
2023-02-02T13:50:54.520Z,8.50
2023-02-02T13:53:47.456Z,10.67
2023-02-02T13:56:39.723Z,6.73
2023-02-02T13:59:23.780Z,9.70
2023-02-02T14:01:53.296Z,7.93
2023-02-02T14:04:23.584Z,7.83
2023-02-02T14:06:57.238Z,9.23
2023-02-02T14:09:28.283Z,10.30
2023-02-02T14:12:00.798Z,6.40
2023-02-02T14:14:35.619Z,9.47
2023-02-02T14:17:06.817Z,8.30
2023-02-02T14:19:53.027Z,7.93
2023-02-02T14:22:37.295Z,8.77
2023-02-02T14:25:36.814Z,7.10
2023-02-02T14:28:11.505Z,8.07
2023-02-02T14:30:40.785Z,6.10
2023-02-02T14:33:39.684Z,7.43
2023-02-02T14:36:14.972Z,7.23
2023-02-02T14:39:05.306Z,6.63
2023-02-02T14:42:09.788Z,8.97
2023-02-02T14:45:08.417Z,7.93
2023-02-02T14:47:59.695Z,9.93
2023-02-02T14:50:36.665Z,11.50
2023-02-02T14:53:08.448Z,8.67
2023-02-02T14:55:39.285Z,6.70
2023-02-02T14:58:08.433Z,10.20
2023-02-02T15:00:37.707Z,10.03
2023-02-02T15:03:35.203Z,11.30
2023-02-02T15:06:08.570Z,8.73
2023-02-02T15:08:36.584Z,8.50
2023-02-02T15:11:29.858Z,8.37
2023-02-02T15:14:07.161Z,9.53
2023-02-02T15:16:39.359Z,10.17
2023-02-02T15:19:14.977Z,10.93
2023-02-02T15:21:45.545Z,8.93
2023-02-02T15:24:21.671Z,8.30
2023-02-02T15:26:50.587Z,8.90
2023-02-02T15:29:24.947Z,8.00
2023-02-02T15:31:55.822Z,9.30
2023-02-02T15:34:27.143Z,7.47
2023-02-02T15:36:57.583Z,7.27
2023-02-02T15:39:30.858Z,10.60
2023-02-02T15:42:19.276Z,8.00
2023-02-02T15:44:47.240Z,9.47
2023-02-02T15:47:20.120Z,7.77
2023-02-02T15:49:48.577Z,9.63
2023-02-02T15:52:22.970Z,11.00
2023-02-02T15:54:53.744Z,10.80
2023-02-02T15:57:31.350Z,10.83
2023-02-02T16:00:00.449Z,10.50
2023-02-02T16:02:37.085Z,8.80
2023-02-02T16:05:25.012Z,7.13
2023-02-02T16:08:05.114Z,8.10
2023-02-02T16:10:34.307Z,9.47
2023-02-02T16:13:02.527Z,10.77
2023-02-02T16:15:31.836Z,11.73
2023-02-02T16:18:02.144Z,9.57
2023-02-02T16:20:32.957Z,6.13
2023-02-02T16:23:04.729Z,12.37
2023-02-02T16:25:35.480Z,8.80
2023-02-02T16:28:03.786Z,9.30
2023-02-02T16:30:35.509Z,9.63
2023-02-02T16:33:28.994Z,11.30
2023-02-02T16:35:57.387Z,9.70
2023-02-02T16:38:27.046Z,7.30
2023-02-02T16:41:06.193Z,10.73
2023-02-02T16:43:35.154Z,9.60
2023-02-02T16:46:06.886Z,11.03
2023-02-02T16:48:38.160Z,10.40
2023-02-02T16:51:27.996Z,9.90
2023-02-02T16:54:01.895Z,9.97
2023-02-02T16:56:36.461Z,11.43
2023-02-02T16:59:09.430Z,7.77
2023-02-02T17:01:40.629Z,8.53
2023-02-02T17:04:22.542Z,7.73
2023-02-02T17:06:53.074Z,7.57
2023-02-02T17:09:34.584Z,11.97
2023-02-02T17:12:09.377Z,10.17
2023-02-02T17:14:52.526Z,8.07
2023-02-02T17:17:20.482Z,6.77
2023-02-02T17:19:49.772Z,7.93
2023-02-02T17:22:20.481Z,5.67
2023-02-02T17:24:51.649Z,7.77
2023-02-02T17:27:24.493Z,6.90
2023-02-02T17:29:52.858Z,7.80
2023-02-02T17:32:20.868Z,9.33
2023-02-02T17:34:50.076Z,8.93
2023-02-02T17:37:18.148Z,7.70
2023-02-02T17:39:46.075Z,11.03
2023-02-02T17:42:23.791Z,7.83
2023-02-02T17:44:51.708Z,11.10
2023-02-02T17:47:19.711Z,11.00
2023-02-02T17:49:47.636Z,11.90
2023-02-02T17:52:16.864Z,8.53
2023-02-02T17:54:44.853Z,11.17
2023-02-02T17:57:12.760Z,10.03
2023-02-02T17:59:40.624Z,9.97
2023-02-02T18:02:11.039Z,10.60
2023-02-02T18:04:38.924Z,11.83
2023-02-02T18:07:07.492Z,11.07
2023-02-02T18:09:36.817Z,12.47
2023-02-02T18:12:04.936Z,11.57
2023-02-02T18:14:32.793Z,11.73
2023-02-02T18:17:00.688Z,10.90
2023-02-02T18:19:28.734Z,11.33
2023-02-02T18:21:56.721Z,14.30
2023-02-02T18:24:24.589Z,10.03
2023-02-02T18:26:53.830Z,11.60
2023-02-02T18:29:21.703Z,9.87
2023-02-02T18:31:49.709Z,9.40
2023-02-02T18:34:17.635Z,8.90
2023-02-02T18:36:45.505Z,8.60
2023-02-02T18:39:13.382Z,11.20
2023-02-02T18:41:41.250Z,10.20
2023-02-02T18:44:10.554Z,12.57
2023-02-02T18:46:38.460Z,7.93
2023-02-02T18:49:06.345Z,9.13
2023-02-02T18:51:34.324Z,9.30
2023-02-02T18:54:02.244Z,8.80
2023-02-02T18:56:30.913Z,8.83
2023-02-02T18:58:59.479Z,9.33
2023-02-02T19:01:28.860Z,7.67
2023-02-02T19:03:57.977Z,9.40
2023-02-02T19:06:44.059Z,10.13
2023-02-02T19:09:13.636Z,8.07
2023-02-02T19:11:44.487Z,8.97
2023-02-02T19:14:15.088Z,11.73
2023-02-02T19:16:46.163Z,9.50
2023-02-02T19:19:22.859Z,11.53
2023-02-02T19:21:53.038Z,17.33
2023-02-02T19:24:21.055Z,9.97
2023-02-02T19:26:50.495Z,7.47
2023-02-02T19:29:20.665Z,10.83
2023-02-02T19:31:54.568Z,8.77
2023-02-02T19:34:23.957Z,11.97
2023-02-02T19:36:52.240Z,8.63
2023-02-02T19:39:23.914Z,12.67
2023-02-02T19:41:55.101Z,13.70
2023-02-02T19:44:24.792Z,9.37
2023-02-02T19:46:56.682Z,15.00
2023-02-02T19:49:29.380Z,9.67
2023-02-02T19:51:58.268Z,11.43
2023-02-02T19:54:33.483Z,10.70
2023-02-02T19:57:06.985Z,11.23
2023-02-02T19:59:36.209Z,11.33
2023-02-02T20:02:33.410Z,9.67
2023-02-02T20:05:04.705Z,10.17
2023-02-02T20:07:32.572Z,11.10
2023-02-02T20:10:12.094Z,11.90
2023-02-02T20:12:39.979Z,11.10
2023-02-02T20:15:25.383Z,10.17
2023-02-02T20:17:58.102Z,10.53
2023-02-02T20:20:28.012Z,11.43
2023-02-02T20:22:57.565Z,9.60
2023-02-02T20:25:25.541Z,14.17
2023-02-02T20:27:53.572Z,12.33
2023-02-02T20:30:25.633Z,10.67
2023-02-02T20:32:58.118Z,13.60
2023-02-02T20:35:35.806Z,15.33
2023-02-02T20:38:14.201Z,14.97
2023-02-02T20:40:42.091Z,12.63
2023-02-02T20:43:09.959Z,14.20
2023-02-02T20:45:37.887Z,14.27
2023-02-02T20:48:08.874Z,13.93
2023-02-02T20:50:36.789Z,13.37
2023-02-02T20:53:04.787Z,13.77
2023-02-02T20:55:35.947Z,17.10
2023-02-02T20:58:04.324Z,10.63
2023-02-02T21:00:33.266Z,12.27
2023-02-02T21:03:01.172Z,10.50
2023-02-02T21:05:30.905Z,12.13
2023-02-02T21:07:58.827Z,10.97
2023-02-02T21:10:27.956Z,13.53
2023-02-02T21:12:56.076Z,13.00
2023-02-02T21:15:25.526Z,10.60
2023-02-02T21:17:53.430Z,14.30
2023-02-02T21:20:21.451Z,11.50
2023-02-02T21:22:50.685Z,11.00
2023-02-02T21:25:18.736Z,11.33
2023-02-02T21:27:57.671Z,12.13
2023-02-02T21:30:25.808Z,12.10
2023-02-02T21:32:53.971Z,11.30
2023-02-02T21:35:21.981Z,9.00
2023-02-02T21:37:56.336Z,11.73
2023-02-02T21:40:29.576Z,12.57
2023-02-02T21:43:00.312Z,11.07
2023-02-02T21:45:35.260Z,13.27
2023-02-02T21:48:06.603Z,11.23
2023-02-02T21:50:37.647Z,9.73
2023-02-02T21:53:19.797Z,15.30
2023-02-02T21:55:52.295Z,10.60
2023-02-02T21:58:24.782Z,9.97
2023-02-02T22:00:53.486Z,11.57
2023-02-02T22:03:28.982Z,8.83
2023-02-02T22:06:30.045Z,10.07
2023-02-02T22:09:08.518Z,9.00
2023-02-02T22:11:44.567Z,11.07
2023-02-02T22:14:19.267Z,10.60
2023-02-02T22:16:50.201Z,12.73
2023-02-02T22:19:26.980Z,11.37
2023-02-02T22:21:55.459Z,9.07
2023-02-02T22:24:26.270Z,14.63
2023-02-02T22:26:54.189Z,11.87
2023-02-02T22:29:24.395Z,13.30
2023-02-02T22:31:52.384Z,17.00
2023-02-02T22:34:20.279Z,7.33
2023-02-02T22:36:48.154Z,10.13
2023-02-02T22:39:16.076Z,8.67
2023-02-02T22:41:45.295Z,10.57
2023-02-02T22:44:13.185Z,8.80
2023-02-02T22:46:41.119Z,11.87
2023-02-02T22:49:09.054Z,10.80
2023-02-02T22:51:36.913Z,9.03
2023-02-02T22:54:04.891Z,13.03
2023-02-02T22:56:32.910Z,12.80
2023-02-02T22:59:03.383Z,9.60
2023-02-02T23:01:31.287Z,12.83
2023-02-02T23:03:59.270Z,12.93
2023-02-02T23:06:27.168Z,9.67
2023-02-02T23:08:55.068Z,10.83
2023-02-02T23:11:22.937Z,11.53
2023-02-02T23:13:51.253Z,11.77
2023-02-02T23:16:20.613Z,10.93
2023-02-02T23:18:48.572Z,9.00
2023-02-02T23:21:17.394Z,10.93
2023-02-02T23:23:45.293Z,12.10
2023-02-02T23:26:13.184Z,10.30
2023-02-02T23:28:41.063Z,9.50
2023-02-02T23:31:09.049Z,9.90
2023-02-02T23:33:38.377Z,11.77
2023-02-02T23:36:06.938Z,12.07
2023-02-02T23:38:34.887Z,14.07
2023-02-02T23:41:02.745Z,11.97
2023-02-02T23:43:30.661Z,12.03
2023-02-02T23:45:58.728Z,12.63
2023-02-02T23:48:26.717Z,12.30
2023-02-02T23:50:56.112Z,11.57
2023-02-02T23:53:24.876Z,12.63
2023-02-02T23:55:52.876Z,10.03
2023-02-02T23:58:21.426Z,14.60
